createdAt,value
2018-11-06T00:02:07.726Z,15.73
2018-11-06T00:04:43.596Z,15.77
2018-11-06T00:07:14.266Z,14.73
2018-11-06T00:09:44.999Z,15.80
2018-11-06T00:12:15.752Z,15.20
2018-11-06T00:14:46.494Z,14.87
2018-11-06T00:17:17.169Z,14.07
2018-11-06T00:19:47.784Z,14.90
2018-11-06T00:22:18.441Z,14.90
2018-11-06T00:24:49.083Z,15.40
2018-11-06T00:27:19.745Z,16.07
2018-11-06T00:29:50.381Z,16.60
2018-11-06T00:32:21.044Z,15.80
2018-11-06T00:34:51.704Z,14.80
2018-11-06T00:37:22.386Z,15.40
2018-11-06T00:39:53.046Z,14.83
2018-11-06T00:42:23.727Z,14.10
2018-11-06T00:44:54.471Z,15.43
2018-11-06T00:47:25.165Z,15.13
2018-11-06T00:49:55.808Z,14.17
2018-11-06T00:52:26.514Z,13.83
2018-11-06T00:54:57.173Z,14.90
2018-11-06T00:57:27.811Z,15.57
2018-11-06T00:59:58.817Z,15.50
2018-11-06T01:02:29.453Z,15.33
2018-11-06T01:05:00.175Z,14.73
2018-11-06T01:07:31.267Z,14.60
2018-11-06T01:10:01.996Z,14.57
2018-11-06T01:12:32.686Z,14.67
2018-11-06T01:15:03.610Z,14.50
2018-11-06T01:17:34.303Z,13.73
2018-11-06T01:20:06.288Z,13.17
2018-11-06T01:22:37.046Z,14.07
2018-11-06T01:25:09.039Z,13.03
2018-11-06T01:27:39.952Z,14.27
2018-11-06T01:30:13.826Z,13.80
2018-11-06T01:32:45.292Z,14.60
2018-11-06T01:35:16.468Z,15.43
2018-11-06T01:37:47.630Z,14.43
2018-11-06T01:40:19.207Z,14.20
2018-11-06T01:42:49.857Z,13.93
2018-11-06T01:45:20.566Z,14.17
2018-11-06T01:47:51.221Z,13.83
2018-11-06T01:50:21.992Z,13.47
2018-11-06T01:52:52.735Z,14.37
2018-11-06T01:55:23.376Z,14.23
2018-11-06T01:57:54.058Z,14.23
2018-11-06T02:00:24.703Z,12.87
2018-11-06T02:02:55.341Z,12.93
2018-11-06T02:05:26.014Z,13.20
2018-11-06T02:07:56.667Z,12.90
2018-11-06T02:10:27.319Z,12.70
2018-11-06T02:12:57.903Z,12.50
2018-11-06T02:15:28.564Z,11.93
2018-11-06T02:17:59.225Z,11.80
2018-11-06T02:20:29.843Z,12.87
2018-11-06T02:23:00.479Z,12.93
2018-11-06T02:25:31.111Z,13.97
2018-11-06T02:28:01.688Z,14.40
2018-11-06T02:30:32.408Z,13.57
2018-11-06T02:33:03.026Z,13.90
2018-11-06T02:35:33.640Z,13.73
2018-11-06T02:38:04.391Z,13.43
2018-11-06T02:40:35.041Z,13.63
2018-11-06T02:43:05.842Z,12.90
2018-11-06T02:45:36.482Z,11.90
2018-11-06T02:48:07.727Z,12.40
2018-11-06T02:50:38.407Z,12.63
2018-11-06T02:53:09.048Z,12.63
2018-11-06T02:55:39.693Z,12.33
2018-11-06T02:58:10.348Z,12.57
2018-11-06T03:00:41.012Z,12.27
2018-11-06T03:03:11.682Z,12.23
2018-11-06T03:05:42.271Z,12.23
2018-11-06T03:08:12.912Z,11.73
2018-11-06T03:10:43.528Z,11.53
2018-11-06T03:13:14.224Z,11.50
2018-11-06T03:15:44.893Z,11.00
2018-11-06T03:18:15.532Z,11.33
2018-11-06T03:20:46.239Z,11.77
2018-11-06T03:23:16.844Z,11.43
2018-11-06T03:25:47.546Z,11.40
2018-11-06T03:28:18.230Z,11.37
2018-11-06T03:30:48.887Z,11.70
2018-11-06T03:33:19.563Z,11.97
2018-11-06T03:35:50.265Z,11.20
2018-11-06T03:38:21.059Z,11.63
2018-11-06T03:40:51.724Z,10.43
2018-11-06T03:43:22.387Z,11.63
2018-11-06T03:45:53.009Z,11.47
2018-11-06T03:48:23.708Z,11.63
2018-11-06T03:50:54.392Z,11.13
2018-11-06T03:53:25.033Z,11.97
2018-11-06T03:55:55.728Z,11.40
2018-11-06T03:58:26.342Z,11.80
2018-11-06T04:00:56.993Z,11.27
2018-11-06T04:03:27.615Z,11.10
2018-11-06T04:05:58.359Z,11.13
2018-11-06T04:08:29.042Z,11.73
2018-11-06T04:10:59.723Z,11.67
2018-11-06T04:13:30.351Z,10.87
2018-11-06T04:16:01.023Z,10.50
2018-11-06T04:18:31.682Z,11.00
2018-11-06T04:21:02.349Z,9.87
2018-11-06T04:23:32.935Z,10.10
2018-11-06T04:26:03.641Z,10.07
2018-11-06T04:28:34.255Z,10.53
2018-11-06T04:31:05.139Z,10.60
2018-11-06T04:33:35.808Z,10.07
2018-11-06T04:36:06.486Z,10.23
2018-11-06T04:38:37.168Z,10.47
2018-11-06T04:41:07.847Z,12.00
2018-11-06T04:43:38.410Z,10.43
2018-11-06T04:46:09.049Z,11.03
2018-11-06T04:48:39.761Z,10.03
2018-11-06T04:51:10.342Z,10.40
2018-11-06T04:53:40.938Z,10.77
2018-11-06T04:56:11.600Z,10.37
2018-11-06T04:58:42.232Z,10.00
2018-11-06T05:01:12.884Z,10.37
2018-11-06T05:03:46.514Z,10.13
2018-11-06T05:06:48.162Z,9.63
2018-11-06T05:09:18.772Z,9.87
2018-11-06T05:11:49.415Z,9.43
2018-11-06T05:14:20.089Z,9.77
2018-11-06T05:16:50.706Z,9.37
2018-11-06T05:19:21.405Z,9.83
2018-11-06T05:21:52.066Z,9.40
2018-11-06T05:24:22.690Z,9.50
2018-11-06T05:26:53.331Z,9.70
2018-11-06T05:29:23.993Z,9.77
2018-11-06T05:31:54.727Z,9.80
2018-11-06T05:34:25.393Z,10.63
2018-11-06T05:36:56.083Z,10.13
2018-11-06T05:39:26.840Z,9.60
2018-11-06T05:41:57.431Z,11.33
2018-11-06T05:44:28.040Z,10.07
2018-11-06T05:46:58.724Z,10.23
2018-11-06T05:49:29.369Z,10.03
2018-11-06T05:52:00.014Z,10.10
2018-11-06T05:54:30.664Z,10.00
2018-11-06T05:57:01.314Z,9.93
2018-11-06T05:59:31.972Z,10.53
2018-11-06T06:02:02.651Z,9.03
2018-11-06T06:04:33.319Z,8.87
2018-11-06T06:07:03.985Z,10.07
2018-11-06T06:09:34.660Z,9.07
2018-11-06T06:12:05.463Z,9.07
2018-11-06T06:14:36.099Z,8.57
2018-11-06T06:17:07.796Z,8.33
2018-11-06T06:19:38.503Z,9.27
2018-11-06T06:22:09.190Z,10.03
2018-11-06T06:24:39.848Z,10.20
2018-11-06T06:27:10.499Z,10.20
2018-11-06T06:29:41.195Z,11.07
2018-11-06T06:32:11.795Z,10.07
2018-11-06T06:34:42.564Z,10.13
2018-11-06T06:37:13.091Z,10.50
2018-11-06T06:39:43.711Z,11.00
2018-11-06T06:42:14.379Z,10.27
2018-11-06T06:44:45.073Z,10.03
2018-11-06T06:47:15.821Z,9.97
2018-11-06T06:49:46.482Z,10.03
2018-11-06T06:52:17.136Z,10.37
2018-11-06T06:54:47.931Z,10.03
2018-11-06T06:57:18.611Z,10.00
2018-11-06T06:59:49.336Z,10.43
2018-11-06T07:02:20.049Z,10.60
2018-11-06T07:04:50.704Z,11.20
2018-11-06T07:07:21.358Z,10.90
2018-11-06T07:09:52.046Z,11.40
2018-11-06T07:12:22.688Z,11.60
2018-11-06T07:14:53.460Z,11.40
2018-11-06T07:17:24.122Z,10.83
2018-11-06T07:19:54.780Z,11.07
2018-11-06T07:22:25.451Z,11.00
2018-11-06T07:24:56.103Z,10.67
2018-11-06T07:27:26.796Z,10.30
2018-11-06T07:29:57.601Z,10.70
2018-11-06T07:32:28.454Z,11.27
2018-11-06T07:34:59.247Z,9.97
2018-11-06T07:37:29.896Z,10.30
2018-11-06T07:40:00.564Z,10.17
2018-11-06T07:42:31.564Z,10.20
2018-11-06T07:45:02.332Z,11.20
2018-11-06T07:47:33.048Z,10.03
2018-11-06T07:50:03.773Z,10.57
2018-11-06T07:52:34.497Z,10.70
2018-11-06T07:55:06.276Z,10.73
2018-11-06T07:57:36.969Z,10.40
2018-11-06T08:00:17.356Z,10.57
2018-11-06T08:02:48.700Z,9.73
2018-11-06T08:05:19.546Z,9.80
2018-11-06T08:07:51.028Z,9.40
2018-11-06T08:10:21.811Z,9.13
2018-11-06T08:12:53.827Z,9.70
2018-11-06T08:15:24.533Z,9.20
2018-11-06T08:17:55.204Z,9.03
2018-11-06T08:20:25.909Z,9.10
2018-11-06T08:22:56.568Z,9.13
2018-11-06T08:25:27.183Z,9.50
2018-11-06T08:27:57.844Z,9.07
2018-11-06T08:30:28.531Z,9.40
2018-11-06T08:32:59.155Z,8.83
2018-11-06T08:35:29.816Z,9.60
2018-11-06T08:38:00.474Z,8.93
2018-11-06T08:40:31.172Z,8.83
2018-11-06T08:43:01.900Z,9.20
2018-11-06T08:45:32.564Z,9.00
2018-11-06T08:48:03.199Z,8.07
2018-11-06T08:50:33.864Z,8.43
2018-11-06T08:53:04.560Z,8.57
2018-11-06T08:55:35.232Z,8.30
2018-11-06T08:58:05.947Z,8.17
2018-11-06T09:00:36.646Z,7.93
2018-11-06T09:03:07.308Z,8.07
2018-11-06T09:05:38.036Z,8.00
2018-11-06T09:08:08.698Z,8.00
2018-11-06T09:10:39.378Z,8.40
2018-11-06T09:13:10.033Z,7.40
2018-11-06T09:15:40.656Z,7.53
2018-11-06T09:18:11.343Z,7.43
2018-11-06T09:20:42.051Z,7.50
2018-11-06T09:23:12.758Z,7.10
2018-11-06T09:25:43.449Z,7.20
2018-11-06T09:28:14.110Z,7.83
2018-11-06T09:30:44.850Z,7.77
2018-11-06T09:33:15.517Z,7.33
2018-11-06T09:35:46.148Z,7.50
2018-11-06T09:38:16.825Z,7.23
2018-11-06T09:40:47.539Z,6.60
2018-11-06T09:43:18.173Z,6.57
2018-11-06T09:45:48.796Z,6.70
2018-11-06T09:48:19.501Z,7.20
2018-11-06T09:50:50.214Z,6.70
2018-11-06T09:53:20.988Z,6.57
2018-11-06T09:55:51.664Z,6.57
2018-11-06T09:58:22.334Z,6.63
2018-11-06T10:00:53.012Z,5.70
2018-11-06T10:03:23.717Z,6.00
2018-11-06T10:05:54.348Z,5.70
2018-11-06T10:08:25.011Z,5.80
2018-11-06T10:10:55.690Z,5.80
2018-11-06T10:13:26.348Z,6.30
2018-11-06T10:15:57.013Z,5.87
2018-11-06T10:18:27.664Z,5.50
2018-11-06T10:20:58.321Z,5.23
2018-11-06T10:23:29.034Z,5.70
2018-11-06T10:25:59.715Z,5.70
2018-11-06T10:28:30.391Z,5.27
2018-11-06T10:31:01.074Z,5.43
2018-11-06T10:33:31.831Z,5.23
2018-11-06T10:36:02.466Z,5.93
2018-11-06T10:38:33.116Z,5.63
2018-11-06T10:41:03.728Z,6.20
2018-11-06T10:43:34.459Z,5.93
2018-11-06T10:46:05.272Z,5.60
2018-11-06T10:48:35.930Z,6.33
2018-11-06T10:51:06.891Z,5.87
2018-11-06T10:53:37.538Z,5.90
2018-11-06T10:56:08.234Z,6.13
2018-11-06T10:58:38.940Z,6.27
2018-11-06T11:02:18.773Z,5.77
2018-11-06T11:04:49.897Z,5.60
2018-11-06T11:07:20.584Z,5.70
2018-11-06T11:09:51.239Z,5.53
2018-11-06T11:12:21.963Z,5.80
2018-11-06T11:14:52.617Z,6.10
2018-11-06T11:17:23.232Z,6.17
2018-11-06T11:19:53.944Z,6.40
2018-11-06T11:22:24.621Z,7.80
2018-11-06T11:24:55.360Z,7.00
2018-11-06T11:27:25.988Z,7.13
2018-11-06T11:29:56.650Z,7.00
2018-11-06T11:32:27.335Z,6.47
2018-11-06T11:34:57.990Z,6.70
2018-11-06T11:37:28.701Z,6.60
2018-11-06T11:39:59.355Z,6.47
2018-11-06T11:42:30.008Z,6.27
2018-11-06T11:45:00.671Z,7.43
2018-11-06T11:47:31.313Z,7.17
2018-11-06T11:50:02.027Z,7.77
2018-11-06T11:52:32.679Z,7.23
2018-11-06T11:55:03.352Z,7.03
2018-11-06T11:57:33.980Z,7.47
2018-11-06T12:00:05.038Z,7.80
2018-11-06T12:02:35.691Z,7.33
2018-11-06T12:05:08.001Z,6.83
2018-11-06T12:07:38.737Z,6.93
2018-11-06T12:10:11.074Z,8.20
2018-11-06T12:12:42.005Z,8.10
2018-11-06T12:15:15.494Z,8.47
2018-11-06T12:17:46.947Z,7.50
2018-11-06T12:20:18.002Z,7.50
2018-11-06T12:22:48.732Z,7.97
2018-11-06T12:25:19.742Z,8.00
2018-11-06T12:27:50.082Z,7.57
2018-11-06T12:30:20.794Z,7.57
2018-11-06T12:32:51.479Z,7.20
2018-11-06T12:35:22.171Z,7.37
2018-11-06T12:37:52.801Z,7.67
2018-11-06T12:40:23.488Z,6.63
2018-11-06T12:42:54.368Z,7.13
2018-11-06T12:45:25.025Z,7.77
2018-11-06T12:47:55.676Z,6.80
2018-11-06T12:50:26.428Z,6.67
2018-11-06T12:52:57.022Z,6.97
2018-11-06T12:55:27.674Z,7.37
2018-11-06T12:57:58.265Z,7.23
2018-11-06T13:00:28.928Z,7.77
2018-11-06T13:02:59.590Z,7.17
2018-11-06T13:05:30.279Z,6.53
2018-11-06T13:08:00.917Z,6.50
2018-11-06T13:10:31.602Z,6.70
2018-11-06T13:13:02.227Z,6.53
2018-11-06T13:15:32.903Z,7.33
2018-11-06T13:18:03.768Z,6.63
2018-11-06T13:20:34.480Z,6.80
2018-11-06T13:23:05.210Z,6.10
2018-11-06T13:25:35.906Z,6.90
2018-11-06T13:28:06.631Z,6.43
2018-11-06T13:30:37.357Z,6.63
2018-11-06T13:33:08.043Z,6.60
2018-11-06T13:35:38.674Z,6.77
2018-11-06T13:38:09.311Z,6.83
2018-11-06T13:40:40.047Z,6.90
2018-11-06T13:43:10.802Z,6.43
2018-11-06T13:45:41.764Z,6.07
2018-11-06T13:48:12.117Z,5.90
2018-11-06T13:50:42.757Z,6.40
2018-11-06T13:53:13.435Z,5.87
2018-11-06T13:55:44.106Z,5.50
2018-11-06T13:58:14.724Z,5.70
2018-11-06T14:00:45.362Z,5.53
2018-11-06T14:03:15.980Z,5.23
2018-11-06T14:05:46.653Z,5.20
2018-11-06T14:08:17.279Z,5.20
2018-11-06T14:10:47.920Z,4.90
2018-11-06T14:13:18.565Z,4.47
2018-11-06T14:15:49.219Z,4.80
2018-11-06T14:18:19.915Z,4.90
2018-11-06T14:20:50.552Z,4.83
2018-11-06T14:23:21.253Z,4.50
2018-11-06T14:25:51.862Z,4.87
2018-11-06T14:28:22.544Z,4.60
2018-11-06T14:30:53.156Z,4.90
2018-11-06T14:33:23.812Z,4.90
2018-11-06T14:35:54.628Z,4.47
2018-11-06T14:38:25.295Z,4.90
2018-11-06T14:40:55.877Z,4.70
2018-11-06T14:43:26.612Z,4.53
2018-11-06T14:45:57.278Z,5.03
2018-11-06T14:48:27.999Z,4.90
2018-11-06T14:50:58.710Z,5.23
2018-11-06T14:53:29.713Z,4.23
2018-11-06T14:56:00.485Z,5.33
2018-11-06T14:58:31.077Z,5.53
2018-11-06T15:01:01.737Z,5.03
2018-11-06T15:03:32.366Z,4.40
2018-11-06T15:06:03.044Z,4.40
2018-11-06T15:08:33.729Z,4.17
2018-11-06T15:11:04.395Z,5.40
2018-11-06T15:13:35.000Z,4.20
2018-11-06T15:16:05.869Z,4.23
2018-11-06T15:18:36.483Z,4.57
2018-11-06T15:21:07.311Z,4.03
2018-11-06T15:23:37.931Z,3.83
2018-11-06T15:26:08.566Z,4.70
2018-11-06T15:28:39.207Z,4.73
2018-11-06T15:31:09.883Z,4.43
2018-11-06T15:33:40.490Z,4.70
2018-11-06T15:36:11.128Z,4.40
2018-11-06T15:38:41.757Z,4.67
2018-11-06T15:41:12.475Z,4.93
2018-11-06T15:43:43.139Z,4.73
2018-11-06T15:46:13.764Z,5.10
2018-11-06T15:48:44.468Z,4.97
2018-11-06T15:51:15.003Z,4.97
2018-11-06T15:53:45.677Z,4.97
2018-11-06T15:56:16.326Z,4.87
2018-11-06T15:58:47.040Z,4.87
2018-11-06T16:01:17.759Z,5.20
2018-11-06T16:03:48.467Z,5.00
2018-11-06T16:06:19.372Z,5.10
2018-11-06T16:08:50.097Z,5.53
2018-11-06T16:11:20.907Z,5.67
2018-11-06T16:13:51.507Z,5.57
2018-11-06T16:16:22.186Z,5.67
2018-11-06T16:18:53.002Z,5.40
2018-11-06T16:21:23.640Z,5.30
2018-11-06T16:23:54.360Z,5.43
2018-11-06T16:26:24.991Z,5.90
2018-11-06T16:28:55.685Z,5.60
2018-11-06T16:31:26.367Z,6.07
2018-11-06T16:33:57.086Z,5.60
2018-11-06T16:36:27.767Z,5.90
2018-11-06T16:38:58.450Z,5.77
2018-11-06T16:41:29.147Z,5.67
2018-11-06T16:43:59.779Z,6.27
2018-11-06T16:46:30.468Z,5.57
2018-11-06T16:49:01.104Z,5.90
2018-11-06T16:51:31.827Z,5.70
2018-11-06T16:54:02.450Z,5.37
2018-11-06T16:56:33.113Z,5.63
2018-11-06T16:59:03.849Z,5.70
2018-11-06T17:01:34.487Z,5.33
2018-11-06T17:04:05.527Z,5.50
2018-11-06T17:06:41.476Z,5.60
2018-11-06T17:09:12.130Z,5.57
2018-11-06T17:11:42.784Z,5.60
2018-11-06T17:14:13.752Z,5.80
2018-11-06T17:16:44.551Z,5.50
2018-11-06T17:19:15.603Z,5.20
2018-11-06T17:21:46.248Z,5.27
2018-11-06T17:24:16.889Z,5.57
2018-11-06T17:26:47.532Z,5.60
2018-11-06T17:29:18.172Z,5.37
2018-11-06T17:31:48.888Z,4.97
2018-11-06T17:34:19.569Z,6.30
2018-11-06T17:36:50.246Z,6.23
2018-11-06T17:39:20.938Z,6.60
2018-11-06T17:41:51.742Z,5.27
2018-11-06T17:44:22.503Z,5.73
2018-11-06T17:46:53.217Z,5.47
2018-11-06T17:49:23.802Z,5.63
2018-11-06T17:51:54.470Z,5.67
2018-11-06T17:54:25.213Z,5.57
2018-11-06T17:56:55.913Z,5.53
2018-11-06T17:59:26.527Z,5.53
2018-11-06T18:01:57.157Z,5.53
2018-11-06T18:04:27.647Z,5.90
2018-11-06T18:06:58.196Z,5.63
2018-11-06T18:09:28.850Z,5.63
2018-11-06T18:11:59.574Z,5.63
2018-11-06T18:14:30.499Z,5.07
2018-11-06T18:17:01.261Z,4.93
2018-11-06T18:19:32.108Z,4.90
2018-11-06T18:22:02.755Z,5.50
2018-11-06T18:24:33.450Z,4.00
2018-11-06T18:27:04.104Z,3.93
2018-11-06T18:29:34.805Z,3.40
2018-11-06T18:32:05.757Z,3.43
2018-11-06T18:34:36.395Z,3.50
2018-11-06T18:37:07.152Z,3.70
2018-11-06T18:39:37.790Z,3.40
2018-11-06T18:42:08.466Z,3.10
2018-11-06T18:44:39.134Z,3.20
2018-11-06T18:47:09.802Z,3.47
2018-11-06T18:49:40.598Z,2.90
2018-11-06T18:52:11.241Z,3.10
2018-11-06T18:54:41.911Z,3.70
2018-11-06T18:57:12.545Z,3.43
2018-11-06T18:59:43.175Z,3.13
2018-11-06T19:02:13.793Z,3.40
2018-11-06T19:04:44.479Z,3.50
2018-11-06T19:07:16.019Z,3.60
2018-11-06T19:09:46.688Z,3.77
2018-11-06T19:12:17.365Z,3.57
2018-11-06T19:14:48.167Z,3.43
2018-11-06T19:17:18.901Z,3.53
2018-11-06T19:19:49.564Z,3.50
2018-11-06T19:22:20.208Z,4.10
2018-11-06T19:24:51.082Z,3.40
2018-11-06T19:27:21.767Z,3.70
2018-11-06T19:29:52.721Z,3.70
2018-11-06T19:32:23.398Z,3.40
2018-11-06T19:34:54.108Z,3.80
2018-11-06T19:37:24.806Z,3.97
2018-11-06T19:39:55.471Z,4.30
2018-11-06T19:42:26.154Z,4.10
2018-11-06T19:44:56.839Z,4.10
2018-11-06T19:47:27.605Z,4.20
2018-11-06T19:49:58.202Z,4.37
2018-11-06T19:52:28.772Z,4.37
2018-11-06T19:54:59.472Z,4.67
2018-11-06T19:57:30.345Z,4.80
2018-11-06T20:00:00.940Z,4.70
2018-11-06T20:02:32.469Z,4.37
2018-11-06T20:05:03.207Z,4.80
2018-11-06T20:07:33.871Z,4.77
2018-11-06T20:10:04.865Z,4.80
2018-11-06T20:12:35.549Z,4.83
2018-11-06T20:15:08.958Z,4.70
2018-11-06T20:17:40.670Z,4.87
2018-11-06T20:20:15.824Z,5.20
2018-11-06T20:22:46.755Z,4.57
2018-11-06T20:25:17.585Z,4.73
2018-11-06T20:27:48.512Z,4.70
2018-11-06T20:30:21.716Z,5.23
2018-11-06T20:32:52.483Z,5.03
2018-11-06T20:35:23.292Z,5.67
2018-11-06T20:37:54.229Z,4.70
2018-11-06T20:40:26.041Z,5.00
2018-11-06T20:42:56.860Z,5.07
2018-11-06T20:45:27.550Z,5.03
2018-11-06T20:47:58.324Z,5.60
2018-11-06T20:50:29.176Z,5.57
2018-11-06T20:52:59.972Z,5.10
2018-11-06T20:55:30.834Z,5.50
2018-11-06T20:58:02.648Z,5.10
2018-11-06T21:00:33.403Z,5.60
2018-11-06T21:03:04.223Z,5.60
2018-11-06T21:05:35.036Z,5.67
2018-11-06T21:08:05.791Z,5.23
2018-11-06T21:10:36.531Z,5.40
2018-11-06T21:13:07.446Z,5.30
2018-11-06T21:15:38.311Z,5.50
2018-11-06T21:18:09.184Z,5.90
2018-11-06T21:20:40.508Z,5.50
2018-11-06T21:23:11.284Z,5.47
2018-11-06T21:25:42.212Z,5.17
2018-11-06T21:28:12.660Z,5.60
2018-11-06T21:30:43.604Z,6.20
2018-11-06T21:33:14.891Z,5.90
2018-11-06T21:35:45.526Z,5.23
2018-11-06T21:38:16.146Z,5.73
2018-11-06T21:40:46.863Z,5.80
2018-11-06T21:43:17.483Z,5.90
2018-11-06T21:45:48.264Z,5.60
2018-11-06T21:48:19.147Z,5.43
2018-11-06T21:50:49.909Z,6.13
2018-11-06T21:53:20.572Z,5.57
2018-11-06T21:55:51.289Z,5.97
2018-11-06T21:58:21.901Z,5.97
2018-11-06T22:00:52.686Z,6.10
2018-11-06T22:03:23.416Z,6.10
2018-11-06T22:05:54.029Z,6.23
2018-11-06T22:08:24.693Z,6.10
2018-11-06T22:10:55.320Z,6.07
2018-11-06T22:13:25.976Z,6.13
2018-11-06T22:15:56.629Z,6.33
2018-11-06T22:18:27.302Z,6.23
2018-11-06T22:20:57.919Z,6.20
2018-11-06T22:23:28.575Z,6.47
2018-11-06T22:25:59.180Z,6.70
2018-11-06T22:28:29.876Z,6.77
2018-11-06T22:31:00.505Z,6.87
2018-11-06T22:33:34.204Z,6.70
2018-11-06T22:36:04.960Z,6.63
2018-11-06T22:38:35.616Z,6.80
2018-11-06T22:41:06.486Z,6.83
2018-11-06T22:43:37.160Z,6.60
2018-11-06T22:46:07.810Z,6.37
2018-11-06T22:48:38.480Z,6.03
2018-11-06T22:51:09.105Z,6.73
2018-11-06T22:53:39.823Z,6.73
2018-11-06T22:56:10.460Z,6.63
2018-11-06T22:58:41.163Z,6.80
2018-11-06T23:01:17.771Z,6.50
2018-11-06T23:03:48.470Z,7.10
2018-11-06T23:06:19.868Z,6.63
2018-11-06T23:08:50.311Z,7.13
2018-11-06T23:11:20.946Z,7.53
2018-11-06T23:13:52.302Z,6.83
2018-11-06T23:16:22.948Z,7.20
2018-11-06T23:18:53.696Z,7.50
2018-11-06T23:21:24.352Z,7.00
2018-11-06T23:23:54.974Z,6.53
2018-11-06T23:26:25.733Z,7.07
2018-11-06T23:28:56.351Z,6.90
2018-11-06T23:31:27.050Z,6.67
2018-11-06T23:33:57.623Z,7.03
2018-11-06T23:36:28.264Z,6.87
2018-11-06T23:38:58.958Z,7.43
2018-11-06T23:41:29.612Z,6.73
2018-11-06T23:44:00.242Z,7.40
2018-11-06T23:46:30.839Z,7.60
2018-11-06T23:49:01.484Z,7.20
2018-11-06T23:51:32.107Z,7.33
2018-11-06T23:54:05.694Z,7.27
2018-11-06T23:56:36.354Z,6.67
2018-11-06T23:59:07.146Z,6.87
